sensor_id;sensor_type;location;lat;lon;timestamp;pressure;altitude;pressure_sealevel;temperature;humidity
46045;BME280;31781;54.094;13.428;2022-07-05T00:04:27;101920.03;;;18.71;53.62
46045;BME280;31781;54.094;13.428;2022-07-05T00:09:30;101934.97;;;18.64;55.39
46045;BME280;31781;54.094;13.428;2022-07-05T00:14:38;101927.66;;;18.58;55.33
46045;BME280;31781;54.094;13.428;2022-07-05T00:25:00;101917.31;;;18.53;53.10
46045;BME280;31781;54.094;13.428;2022-07-05T00:30:03;101935.47;;;18.42;53.99
46045;BME280;31781;54.094;13.428;2022-07-05T00:35:07;101923.44;;;18.37;55.72
46045;BME280;31781;54.094;13.428;2022-07-05T00:40:16;101917.78;;;18.32;56.27
46045;BME280;31781;54.094;13.428;2022-07-05T00:45:18;101923.78;;;18.29;54.65
46045;BME280;31781;54.094;13.428;2022-07-05T00:50:21;101931.03;;;18.23;56.57
46045;BME280;31781;54.094;13.428;2022-07-05T01:00:44;101913.28;;;18.19;54.28
46045;BME280;31781;54.094;13.428;2022-07-05T01:05:46;101922.56;;;18.07;55.46
46045;BME280;31781;54.094;13.428;2022-07-05T01:11:05;101921.09;;;18.04;54.65
46045;BME280;31781;54.094;13.428;2022-07-05T01:16:09;101921.72;;;17.88;55.78
46045;BME280;31781;54.094;13.428;2022-07-05T01:31:50;101924.66;;;17.68;55.79
46045;BME280;31781;54.094;13.428;2022-07-05T01:36:53;101925.22;;;17.52;56.97
46045;BME280;31781;54.094;13.428;2022-07-05T01:47:15;101927.44;;;17.43;55.58
46045;BME280;31781;54.094;13.428;2022-07-05T01:52:21;101923.12;;;17.29;56.18
46045;BME280;31781;54.094;13.428;2022-07-05T01:57:24;101922.94;;;17.24;57.00
46045;BME280;31781;54.094;13.428;2022-07-05T02:02:32;101926.81;;;17.17;57.64
46045;BME280;31781;54.094;13.428;2022-07-05T02:07:35;101926.41;;;17.13;56.35
46045;BME280;31781;54.094;13.428;2022-07-05T02:12:38;101922.63;;;17.08;57.92
46045;BME280;31781;54.094;13.428;2022-07-05T02:17:46;101926.28;;;17.01;57.72
46045;BME280;31781;54.094;13.428;2022-07-05T02:22:49;101939.63;;;16.98;56.45
46045;BME280;31781;54.094;13.428;2022-07-05T02:27:52;101935.25;;;16.90;57.74
46045;BME280;31781;54.094;13.428;2022-07-05T02:33:00;101944.41;;;16.84;58.23
46045;BME280;31781;54.094;13.428;2022-07-05T02:38:03;101941.66;;;16.78;56.72
46045;BME280;31781;54.094;13.428;2022-07-05T02:43:06;101948.06;;;16.72;58.27
46045;BME280;31781;54.094;13.428;2022-07-05T02:48:14;101949.16;;;16.64;58.34
46045;BME280;31781;54.094;13.428;2022-07-05T02:53:17;101948.34;;;16.57;57.24
46045;BME280;31781;54.094;13.428;2022-07-05T02:58:19;101942.84;;;16.50;57.80
46045;BME280;31781;54.094;13.428;2022-07-05T03:03:28;101940.16;;;16.44;58.51
46045;BME280;31781;54.094;13.428;2022-07-05T03:08:30;101940.81;;;16.39;57.20
46045;BME280;31781;54.094;13.428;2022-07-05T03:13:33;101942.50;;;16.34;58.83
46045;BME280;31781;54.094;13.428;2022-07-05T03:18:41;101952.47;;;16.28;58.91
46045;BME280;31781;54.094;13.428;2022-07-05T03:23:44;101942.34;;;16.22;57.67
46045;BME280;31781;54.094;13.428;2022-07-05T03:28:47;101935.81;;;16.17;59.19
46045;BME280;31781;54.094;13.428;2022-07-05T03:33:56;101940.06;;;16.13;59.31
46045;BME280;31781;54.094;13.428;2022-07-05T03:38:58;101946.00;;;16.10;58.01
46045;BME280;31781;54.094;13.428;2022-07-05T03:44:02;101947.69;;;16.04;59.62
46045;BME280;31781;54.094;13.428;2022-07-05T03:49:10;101940.53;;;16.03;59.74
46045;BME280;31781;54.094;13.428;2022-07-05T03:54:13;101945.37;;;16.01;58.15
46045;BME280;31781;54.094;13.428;2022-07-05T03:59:15;101954.69;;;16.00;59.63
46045;BME280;31781;54.094;13.428;2022-07-05T04:04:24;101956.59;;;15.99;59.61
46045;BME280;31781;54.094;13.428;2022-07-05T04:09:27;101960.19;;;16.00;58.73
46045;BME280;31781;54.094;13.428;2022-07-05T04:14:46;101955.28;;;16.08;57.74
46045;BME280;31781;54.094;13.428;2022-07-05T04:19:49;101944.72;;;16.05;58.61
46045;BME280;31781;54.094;13.428;2022-07-05T04:24:52;101952.53;;;16.08;60.00
46045;BME280;31781;54.094;13.428;2022-07-05T04:30:00;101954.44;;;16.15;59.91
46045;BME280;31781;54.094;13.428;2022-07-05T04:35:03;101948.66;;;16.23;58.70
46045;BME280;31781;54.094;13.428;2022-07-05T04:40:09;101959.41;;;16.31;59.91
46045;BME280;31781;54.094;13.428;2022-07-05T04:45:17;101951.56;;;16.41;59.67
46045;BME280;31781;54.094;13.428;2022-07-05T04:50:20;101955.53;;;16.51;58.78
46045;BME280;31781;54.094;13.428;2022-07-05T04:55:23;101958.25;;;16.65;59.88
46045;BME280;31781;54.094;13.428;2022-07-05T05:00:31;101960.28;;;16.76;59.42
46045;BME280;31781;54.094;13.428;2022-07-05T05:10:52;101958.78;;;17.11;58.15
46045;BME280;31781;54.094;13.428;2022-07-05T05:15:55;101965.50;;;17.22;59.12
46045;BME280;31781;54.094;13.428;2022-07-05T05:20:58;101971.47;;;17.37;59.61
46045;BME280;31781;54.094;13.428;2022-07-05T05:26:06;101966.50;;;17.52;59.40
46045;BME280;31781;54.094;13.428;2022-07-05T05:36:27;101970.53;;;17.99;57.21
46045;BME280;31781;54.094;13.428;2022-07-05T05:41:30;101974.19;;;18.11;57.65
46045;BME280;31781;54.094;13.428;2022-07-05T05:46:33;101977.56;;;18.31;57.59
46045;BME280;31781;54.094;13.428;2022-07-05T05:51:51;101975.34;;;18.58;56.08
46045;BME280;31781;54.094;13.428;2022-07-05T06:02:13;101981.38;;;18.96;55.75
46045;BME280;31781;54.094;13.428;2022-07-05T06:07:16;101981.78;;;19.12;55.20
46045;BME280;31781;54.094;13.428;2022-07-05T06:12:19;101976.81;;;19.32;54.82
46045;BME280;31781;54.094;13.428;2022-07-05T06:17:27;101982.75;;;19.47;54.27
46045;BME280;31781;54.094;13.428;2022-07-05T06:22:29;101988.03;;;19.60;53.80
46045;BME280;31781;54.094;13.428;2022-07-05T06:27:37;101989.75;;;19.73;54.39
46045;BME280;31781;54.094;13.428;2022-07-05T06:38:07;101996.56;;;20.17;53.36
46045;BME280;31781;54.094;13.428;2022-07-05T06:48:28;102002.41;;;20.44;52.01
46045;BME280;31781;54.094;13.428;2022-07-05T06:53:31;102003.37;;;20.49;51.85
46045;BME280;31781;54.094;13.428;2022-07-05T06:58:34;102009.03;;;20.54;51.23
46045;BME280;31781;54.094;13.428;2022-07-05T07:03:42;102002.84;;;20.64;51.18
46045;BME280;31781;54.094;13.428;2022-07-05T07:09:05;102007.69;;;20.85;51.66
46045;BME280;31781;54.094;13.428;2022-07-05T07:14:05;102006.91;;;21.01;50.36
46045;BME280;31781;54.094;13.428;2022-07-05T07:19:13;102016.66;;;21.04;50.25
46045;BME280;31781;54.094;13.428;2022-07-05T07:24:16;102017.72;;;21.03;49.24
46045;BME280;31781;54.094;13.428;2022-07-05T07:29:19;102016.06;;;21.13;47.72
46045;BME280;31781;54.094;13.428;2022-07-05T07:34:28;102021.03;;;21.28;48.13
46045;BME280;31781;54.094;13.428;2022-07-05T07:39:31;102014.00;;;21.54;47.01
46045;BME280;31781;54.094;13.428;2022-07-05T07:44:35;102024.66;;;21.78;44.50
46045;BME280;31781;54.094;13.428;2022-07-05T07:49:43;102016.63;;;21.94;44.96
46045;BME280;31781;54.094;13.428;2022-07-05T07:54:47;102019.69;;;22.14;44.67
46045;BME280;31781;54.094;13.428;2022-07-05T07:59:50;102022.44;;;22.30;44.58
46045;BME280;31781;54.094;13.428;2022-07-05T08:04:58;102022.87;;;22.44;44.08
46045;BME280;31781;54.094;13.428;2022-07-05T08:10:02;102028.12;;;22.62;44.23
46045;BME280;31781;54.094;13.428;2022-07-05T08:20:34;102014.56;;;23.09;43.83
46045;BME280;31781;54.094;13.428;2022-07-05T08:25:37;102015.69;;;23.13;42.46
46045;BME280;31781;54.094;13.428;2022-07-05T08:35:58;102014.44;;;23.53;41.81
46045;BME280;31781;54.094;13.428;2022-07-05T08:41:01;102024.28;;;23.39;40.75
46045;BME280;31781;54.094;13.428;2022-07-05T08:46:05;102011.81;;;23.41;40.47
46045;BME280;31781;54.094;13.428;2022-07-05T08:51:23;102020.37;;;23.40;40.08
46045;BME280;31781;54.094;13.428;2022-07-05T09:01:45;102024.38;;;23.22;39.72
46045;BME280;31781;54.094;13.428;2022-07-05T09:06:48;102015.38;;;23.37;40.43
46045;BME280;31781;54.094;13.428;2022-07-05T09:12:11;102013.50;;;23.74;39.69
46045;BME280;31781;54.094;13.428;2022-07-05T09:17:25;102003.34;;;23.95;38.00
46045;BME280;31781;54.094;13.428;2022-07-05T09:22:41;102008.59;;;24.28;36.98
46045;BME280;31781;54.094;13.428;2022-07-05T09:28:01;102013.19;;;24.49;38.40
46045;BME280;31781;54.094;13.428;2022-07-05T09:33:09;102005.47;;;24.66;38.55
46045;BME280;31781;54.094;13.428;2022-07-05T09:38:18;101996.94;;;24.98;37.64
46045;BME280;31781;54.094;13.428;2022-07-05T09:43:28;102005.66;;;25.37;37.35
46045;BME280;31781;54.094;13.428;2022-07-05T09:48:33;102014.62;;;25.75;36.38
46045;BME280;31781;54.094;13.428;2022-07-05T09:59:19;102022.69;;;25.96;32.16
46045;BME280;31781;54.094;13.428;2022-07-05T10:09:47;102014.25;;;26.32;34.57
46045;BME280;31781;54.094;13.428;2022-07-05T10:14:51;102011.66;;;26.60;35.48
46045;BME280;31781;54.094;13.428;2022-07-05T10:19:57;102017.44;;;26.84;32.20
46045;BME280;31781;54.094;13.428;2022-07-05T10:25:07;102021.84;;;26.90;33.66
46045;BME280;31781;54.094;13.428;2022-07-05T10:30:11;102030.84;;;26.72;34.45
46045;BME280;31781;54.094;13.428;2022-07-05T10:35:15;102034.03;;;26.45;34.21
46045;BME280;31781;54.094;13.428;2022-07-05T10:40:32;102029.87;;;26.38;34.83
46045;BME280;31781;54.094;13.428;2022-07-05T10:45:39;102028.19;;;26.42;34.84
46045;BME280;31781;54.094;13.428;2022-07-05T10:56:11;102022.50;;;26.67;34.19
46045;BME280;31781;54.094;13.428;2022-07-05T11:01:35;102027.06;;;26.43;34.01
46045;BME280;31781;54.094;13.428;2022-07-05T11:06:43;102039.97;;;26.24;34.94
46045;BME280;31781;54.094;13.428;2022-07-05T11:12:06;102035.75;;;26.06;35.11
46045;BME280;31781;54.094;13.428;2022-07-05T11:17:29;102035.22;;;26.19;35.29
46045;BME280;31781;54.094;13.428;2022-07-05T11:23:10;102028.25;;;26.11;33.15
46045;BME280;31781;54.094;13.428;2022-07-05T11:28:25;102031.03;;;26.06;35.67
46045;BME280;31781;54.094;13.428;2022-07-05T11:39:12;102032.72;;;25.87;32.64
46045;BME280;31781;54.094;13.428;2022-07-05T11:44:22;102021.28;;;25.89;33.28
46045;BME280;31781;54.094;13.428;2022-07-05T11:54:54;102010.66;;;26.26;34.28
46045;BME280;31781;54.094;13.428;2022-07-05T11:59:57;102014.56;;;26.25;34.09
46045;BME280;31781;54.094;13.428;2022-07-05T12:04:59;102008.16;;;26.20;33.52
46045;BME280;31781;54.094;13.428;2022-07-05T12:10:09;102002.28;;;26.16;33.31
46045;BME280;31781;54.094;13.428;2022-07-05T12:15:13;102002.03;;;26.07;34.31
46045;BME280;31781;54.094;13.428;2022-07-05T12:20:21;101996.16;;;25.99;32.69
46045;BME280;31781;54.094;13.428;2022-07-05T12:25:31;101996.97;;;26.09;32.63
46045;BME280;31781;54.094;13.428;2022-07-05T12:30:34;101988.34;;;26.26;33.70
46045;BME280;31781;54.094;13.428;2022-07-05T12:41:01;101990.88;;;26.82;33.33
46045;BME280;31781;54.094;13.428;2022-07-05T12:51:31;101990.19;;;27.10;33.01
46045;BME280;31781;54.094;13.428;2022-07-05T12:56:35;101983.66;;;27.25;32.04
46045;BME280;31781;54.094;13.428;2022-07-05T13:01:57;101977.62;;;27.46;29.25
46045;BME280;31781;54.094;13.428;2022-07-05T13:07:06;101976.34;;;27.68;27.70
46045;BME280;31781;54.094;13.428;2022-07-05T13:12:29;101979.28;;;27.81;27.77
46045;BME280;31781;54.094;13.428;2022-07-05T13:17:31;101960.72;;;27.90;28.29
46045;BME280;31781;54.094;13.428;2022-07-05T13:22:40;101960.81;;;28.09;29.50
46045;BME280;31781;54.094;13.428;2022-07-05T13:27:42;101977.66;;;28.04;29.78
46045;BME280;31781;54.094;13.428;2022-07-05T13:32:45;101969.41;;;27.89;28.87
46045;BME280;31781;54.094;13.428;2022-07-05T13:37:53;101976.00;;;27.74;29.98
46045;BME280;31781;54.094;13.428;2022-07-05T13:42:56;101987.06;;;27.55;30.87
46045;BME280;31781;54.094;13.428;2022-07-05T13:47:59;101979.84;;;27.49;30.51
46045;BME280;31781;54.094;13.428;2022-07-05T13:58:21;101986.47;;;27.58;32.14
46045;BME280;31781;54.094;13.428;2022-07-05T14:03:23;101982.66;;;27.44;30.75
46045;BME280;31781;54.094;13.428;2022-07-05T14:08:26;101980.50;;;27.36;30.62
46045;BME280;31781;54.094;13.428;2022-07-05T14:13:35;101979.66;;;27.36;30.06
46045;BME280;31781;54.094;13.428;2022-07-05T14:18:39;101983.25;;;27.41;31.30
46045;BME280;31781;54.094;13.428;2022-07-05T14:23:42;101981.84;;;27.39;30.51
46045;BME280;31781;54.094;13.428;2022-07-05T14:28:50;101984.97;;;27.37;30.31
46045;BME280;31781;54.094;13.428;2022-07-05T14:33:52;101984.47;;;27.25;30.67
46045;BME280;31781;54.094;13.428;2022-07-05T14:38:55;101996.88;;;27.09;30.99
46045;BME280;31781;54.094;13.428;2022-07-05T14:44:04;101989.19;;;26.91;31.96
46045;BME280;31781;54.094;13.428;2022-07-05T14:49:07;101988.94;;;26.77;32.41
46045;BME280;31781;54.094;13.428;2022-07-05T14:54:09;101983.69;;;26.66;32.77
46045;BME280;31781;54.094;13.428;2022-07-05T14:59:17;101981.72;;;26.71;32.86
46045;BME280;31781;54.094;13.428;2022-07-05T15:04:20;101980.00;;;26.85;33.70
46045;BME280;31781;54.094;13.428;2022-07-05T15:09:23;101988.66;;;26.84;31.63
46045;BME280;31781;54.094;13.428;2022-07-05T15:14:31;101990.06;;;26.76;32.46
46045;BME280;31781;54.094;13.428;2022-07-05T15:19:34;101985.91;;;26.69;33.45
46045;BME280;31781;54.094;13.428;2022-07-05T15:24:37;101988.44;;;26.65;33.10
46045;BME280;31781;54.094;13.428;2022-07-05T15:29:55;101980.31;;;26.74;33.68
46045;BME280;31781;54.094;13.428;2022-07-05T15:40:17;101981.75;;;26.66;33.84
46045;BME280;31781;54.094;13.428;2022-07-05T15:45:20;101985.97;;;26.58;33.78
46045;BME280;31781;54.094;13.428;2022-07-05T15:50:23;101970.13;;;26.49;32.77
46045;BME280;31781;54.094;13.428;2022-07-05T15:55:34;101965.97;;;26.41;33.61
46045;BME280;31781;54.094;13.428;2022-07-05T16:00:37;101976.88;;;26.28;34.22
46045;BME280;31781;54.094;13.428;2022-07-05T16:10:58;101979.13;;;26.15;34.92
46045;BME280;31781;54.094;13.428;2022-07-05T16:16:02;101980.28;;;25.99;35.37
46045;BME280;31781;54.094;13.428;2022-07-05T16:21:20;101975.00;;;25.93;35.86
46045;BME280;31781;54.094;13.428;2022-07-05T16:26:23;101982.28;;;25.79;36.19
46045;BME280;31781;54.094;13.428;2022-07-05T16:31:26;101970.00;;;25.70;35.68
46045;BME280;31781;54.094;13.428;2022-07-05T16:36:34;101982.56;;;25.67;36.43
46045;BME280;31781;54.094;13.428;2022-07-05T16:41:37;101988.69;;;25.69;36.48
46045;BME280;31781;54.094;13.428;2022-07-05T16:46:40;101993.44;;;25.74;36.60
46045;BME280;31781;54.094;13.428;2022-07-05T16:51:48;101990.91;;;25.77;36.16
46045;BME280;31781;54.094;13.428;2022-07-05T16:56:51;101996.19;;;25.84;36.40
46045;BME280;31781;54.094;13.428;2022-07-05T17:02:00;101989.22;;;25.81;36.12
46045;BME280;31781;54.094;13.428;2022-07-05T17:07:08;101999.84;;;25.69;36.83
46045;BME280;31781;54.094;13.428;2022-07-05T17:12:11;102003.16;;;25.46;36.72
46045;BME280;31781;54.094;13.428;2022-07-05T17:17:14;102000.63;;;25.24;36.53
46045;BME280;31781;54.094;13.428;2022-07-05T17:22:22;102005.06;;;25.10;36.05
46045;BME280;31781;54.094;13.428;2022-07-05T17:27:24;102005.56;;;24.92;36.29
46045;BME280;31781;54.094;13.428;2022-07-05T17:32:27;102004.34;;;24.72;37.00
46045;BME280;31781;54.094;13.428;2022-07-05T17:37:35;102011.25;;;24.50;37.46
46045;BME280;31781;54.094;13.428;2022-07-05T17:42:38;102011.97;;;24.30;38.17
46045;BME280;31781;54.094;13.428;2022-07-05T17:47:41;102013.50;;;24.11;38.72
46045;BME280;31781;54.094;13.428;2022-07-05T17:52:49;102016.72;;;23.93;38.82
46045;BME280;31781;54.094;13.428;2022-07-05T17:57:52;102016.87;;;23.76;38.91
46045;BME280;31781;54.094;13.428;2022-07-05T18:02:54;102018.09;;;23.58;39.63
46045;BME280;31781;54.094;13.428;2022-07-05T18:08:03;102019.63;;;23.44;40.03
46045;BME280;31781;54.094;13.428;2022-07-05T18:13:06;102022.00;;;23.31;39.95
46045;BME280;31781;54.094;13.428;2022-07-05T18:18:09;102025.44;;;23.16;40.23
46045;BME280;31781;54.094;13.428;2022-07-05T18:23:18;102023.06;;;23.03;40.55
46045;BME280;31781;54.094;13.428;2022-07-05T18:28:21;102027.66;;;22.92;40.46
46045;BME280;31781;54.094;13.428;2022-07-05T18:33:24;102025.03;;;22.80;40.60
46045;BME280;31781;54.094;13.428;2022-07-05T18:38:32;102025.75;;;22.71;40.59
46045;BME280;31781;54.094;13.428;2022-07-05T18:43:35;102022.84;;;22.61;40.83
46045;BME280;31781;54.094;13.428;2022-07-05T18:48:37;102023.81;;;22.50;41.28
46045;BME280;31781;54.094;13.428;2022-07-05T18:53:46;102024.25;;;22.42;41.59
46045;BME280;31781;54.094;13.428;2022-07-05T18:58:49;102017.44;;;22.32;41.24
46045;BME280;31781;54.094;13.428;2022-07-05T19:03:52;102027.03;;;22.25;42.00
46045;BME280;31781;54.094;13.428;2022-07-05T19:09:00;102019.75;;;22.19;42.16
46045;BME280;31781;54.094;13.428;2022-07-05T19:19:22;102016.56;;;22.10;41.67
46045;BME280;31781;54.094;13.428;2022-07-05T19:24:24;102016.09;;;21.97;42.22
46045;BME280;31781;54.094;13.428;2022-07-05T19:29:27;102014.84;;;21.88;42.85
46045;BME280;31781;54.094;13.428;2022-07-05T19:39:39;102019.47;;;21.65;42.21
46045;BME280;31781;54.094;13.428;2022-07-05T19:55:19;102013.91;;;21.49;42.34
46045;BME280;31781;54.094;13.428;2022-07-05T20:00:21;102019.50;;;21.37;43.23
46045;BME280;31781;54.094;13.428;2022-07-05T20:05:24;102021.59;;;21.30;44.04
46045;BME280;31781;54.094;13.428;2022-07-05T20:15:46;102018.16;;;21.23;43.54
46045;BME280;31781;54.094;13.428;2022-07-05T20:20:48;102030.81;;;21.07;44.40
46045;BME280;31781;54.094;13.428;2022-07-05T20:25:51;102038.09;;;20.97;45.14
46045;BME280;31781;54.094;13.428;2022-07-05T20:30:59;102043.44;;;20.86;45.21
46045;BME280;31781;54.094;13.428;2022-07-05T20:36:03;102037.94;;;20.75;44.60
46045;BME280;31781;54.094;13.428;2022-07-05T20:41:06;102040.50;;;20.65;45.38
46045;BME280;31781;54.094;13.428;2022-07-05T20:46:14;102038.94;;;20.57;45.30
46045;BME280;31781;54.094;13.428;2022-07-05T20:51:23;102035.72;;;20.49;44.75
46045;BME280;31781;54.094;13.428;2022-07-05T20:56:26;102035.22;;;20.40;45.55
46045;BME280;31781;54.094;13.428;2022-07-05T21:01:34;102033.94;;;20.31;45.61
46045;BME280;31781;54.094;13.428;2022-07-05T21:06:37;102034.03;;;20.24;45.15
46045;BME280;31781;54.094;13.428;2022-07-05T21:11:40;102035.25;;;20.17;46.36
46045;BME280;31781;54.094;13.428;2022-07-05T21:16:48;102040.06;;;20.10;46.57
46045;BME280;31781;54.094;13.428;2022-07-05T21:21:50;102046.53;;;20.04;46.15
46045;BME280;31781;54.094;13.428;2022-07-05T21:26:53;102052.41;;;19.96;47.32
46045;BME280;31781;54.094;13.428;2022-07-05T21:32:02;102054.72;;;19.87;47.48
46045;BME280;31781;54.094;13.428;2022-07-05T21:37:05;102048.69;;;19.78;46.54
46045;BME280;31781;54.094;13.428;2022-07-05T21:42:08;102045.06;;;19.66;47.58
46045;BME280;31781;54.094;13.428;2022-07-05T21:47:16;102057.53;;;19.57;47.94
46045;BME280;31781;54.094;13.428;2022-07-05T21:52:19;102056.44;;;19.47;47.11
46045;BME280;31781;54.094;13.428;2022-07-05T21:57:21;102067.41;;;19.35;48.34
46045;BME280;31781;54.094;13.428;2022-07-05T22:02:29;102060.78;;;19.24;48.59
46045;BME280;31781;54.094;13.428;2022-07-05T22:07:32;102065.78;;;19.16;47.70
46045;BME280;31781;54.094;13.428;2022-07-05T22:12:35;102058.28;;;19.05;48.93
46045;BME280;31781;54.094;13.428;2022-07-05T22:17:43;102058.00;;;18.94;49.05
46045;BME280;31781;54.094;13.428;2022-07-05T22:22:46;102063.25;;;18.84;48.11
46045;BME280;31781;54.094;13.428;2022-07-05T22:27:49;102061.25;;;18.73;49.23
46045;BME280;31781;54.094;13.428;2022-07-05T22:32:57;102052.06;;;18.61;49.36
46045;BME280;31781;54.094;13.428;2022-07-05T22:37:59;102053.44;;;18.52;48.26
46045;BME280;31781;54.094;13.428;2022-07-05T22:43:02;102062.22;;;18.42;49.65
46045;BME280;31781;54.094;13.428;2022-07-05T22:48:11;102050.91;;;18.32;50.01
46045;BME280;31781;54.094;13.428;2022-07-05T22:53:13;102050.34;;;18.24;49.11
46045;BME280;31781;54.094;13.428;2022-07-05T22:58:16;102058.28;;;18.14;50.44
46045;BME280;31781;54.094;13.428;2022-07-05T23:03:25;102056.87;;;18.05;50.62
46045;BME280;31781;54.094;13.428;2022-07-05T23:08:28;102052.75;;;17.95;49.63
46045;BME280;31781;54.094;13.428;2022-07-05T23:18:49;102047.34;;;17.82;49.19
46045;BME280;31781;54.094;13.428;2022-07-05T23:23:52;102048.75;;;17.67;50.21
46045;BME280;31781;54.094;13.428;2022-07-05T23:28:55;102047.13;;;17.59;51.39
46045;BME280;31781;54.094;13.428;2022-07-05T23:34:03;102043.78;;;17.50;51.58
46045;BME280;31781;54.094;13.428;2022-07-05T23:39:05;102054.22;;;17.42;50.97
46045;BME280;31781;54.094;13.428;2022-07-05T23:44:08;102047.31;;;17.33;52.21
46045;BME280;31781;54.094;13.428;2022-07-05T23:49:16;102054.97;;;17.24;52.34
46045;BME280;31781;54.094;13.428;2022-07-05T23:54:19;102046.97;;;17.16;51.21
46045;BME280;31781;54.094;13.428;2022-07-05T23:59:22;102057.16;;;17.09;52.67
